Terminal Aerodrome Forecast
Issued by NWS

Home | Current Version | Previous Version | Text Only | Print | Product List | Glossary On
Versions: 1 2 3 4 5 6 7 8 9 10 11 12 13 14
000
FTUS45 KBOU 191954 AAA
TAFBJC
TAF AMD
KBJC 191954Z 1920/2018 VRB05KT P6SM FEW220
     FM192100 08005KT P6SM SCT220
     FM200100 33006KT P6SM SCT120 BKN200
     FM200600 25007KT P6SM SCT110 BKN180
     FM200900 24006KT P6SM VCSH SCT040 BKN070=

USA.gov is the U.S. government's official web portal to all federal, state and local government web resources and services.